Main page
METAR-TAF:

METAR-TAF

Airports :

Jaipur International Airport

Jaipur, India

latitude: 26-49N, longitude: 075-48E, elevation: 385 m

Current weather observation

The report was made 27 minutes ago, at 03:30 UTC
Wind 5 kt from the East/Northeast
Temperature 22°C
Humidity 33%
Pressure 1016 hPa
Visibility: 2500 m
haze

METAR: VIJP 010330Z 07005KT 2500 HZ NSC 22/05 Q1016 BECMG 3000 HZ

Time: 09:27 (03:57 UTC)

Forecast

The report was made 1 hour and 57 minutes ago, at 02:00 UTC
Forecast valid from 01 at 03 UTC to 01 at 12 UTC
Wind 6 kt from the Northeast
Visibility: 3000 m
haze
Becoming
from 01 at 05 UTC to 01 at 07 UTC
Wind 5 kt from the West
Visibility: 5000 m
haze

TAF: VIJP 010200Z 0103/0112 05006KT 3000 HZ NSC BECMG 0105/0107 27005KT 5000 HZ

Weather observations and forecasts of more than 4000 airports (METAR and TAF reports).

The available stations are represented by yellow and red dots on the map.

Hover mouse over dot to see the name of the station.

Then click to see weather observations and forecasts.

To change the map : click on the green buttons with a black cross to zoom in, on the green button with a dash to zoom out, or on the green arrows for adjacent maps.


METAR-TAF: